sensor_id;sensor_type;location;lat;lon;timestamp;P1;durP1;ratioP1;P2;durP2;ratioP2
10303;SDS011;5197;48.152;8.590;2023-12-07T00:02:03;14.43;;;10.47;;
10303;SDS011;5197;48.152;8.590;2023-12-07T00:04:31;14.70;;;10.40;;
10303;SDS011;5197;48.152;8.590;2023-12-07T00:06:58;15.40;;;9.73;;
10303;SDS011;5197;48.152;8.590;2023-12-07T00:09:25;14.37;;;9.97;;
10303;SDS011;5197;48.152;8.590;2023-12-07T00:11:51;14.97;;;10.67;;
10303;SDS011;5197;48.152;8.590;2023-12-07T00:14:18;15.30;;;10.93;;
10303;SDS011;5197;48.152;8.590;2023-12-07T00:16:45;13.93;;;10.43;;
10303;SDS011;5197;48.152;8.590;2023-12-07T00:19:12;13.67;;;10.30;;
10303;SDS011;5197;48.152;8.590;2023-12-07T00:21:39;14.70;;;10.70;;
10303;SDS011;5197;48.152;8.590;2023-12-07T00:24:06;15.63;;;10.53;;
10303;SDS011;5197;48.152;8.590;2023-12-07T00:26:33;14.53;;;10.07;;
10303;SDS011;5197;48.152;8.590;2023-12-07T00:29:00;14.70;;;10.20;;
10303;SDS011;5197;48.152;8.590;2023-12-07T00:31:27;14.87;;;10.43;;
10303;SDS011;5197;48.152;8.590;2023-12-07T00:33:54;16.33;;;10.57;;
10303;SDS011;5197;48.152;8.590;2023-12-07T00:36:21;14.90;;;10.83;;
10303;SDS011;5197;48.152;8.590;2023-12-07T00:38:47;14.57;;;10.70;;
10303;SDS011;5197;48.152;8.590;2023-12-07T00:41:14;16.23;;;10.43;;
10303;SDS011;5197;48.152;8.590;2023-12-07T00:43:41;13.30;;;9.67;;
10303;SDS011;5197;48.152;8.590;2023-12-07T00:46:08;14.47;;;10.03;;
10303;SDS011;5197;48.152;8.590;2023-12-07T00:48:35;10.97;;;8.33;;
10303;SDS011;5197;48.152;8.590;2023-12-07T00:51:02;13.50;;;9.90;;
10303;SDS011;5197;48.152;8.590;2023-12-07T00:53:29;13.00;;;9.73;;
10303;SDS011;5197;48.152;8.590;2023-12-07T00:55:56;14.07;;;9.20;;
10303;SDS011;5197;48.152;8.590;2023-12-07T00:58:23;14.60;;;8.50;;
10303;SDS011;5197;48.152;8.590;2023-12-07T01:00:50;11.60;;;8.80;;
10303;SDS011;5197;48.152;8.590;2023-12-07T01:03:17;9.83;;;7.83;;
10303;SDS011;5197;48.152;8.590;2023-12-07T01:05:44;14.03;;;8.70;;
10303;SDS011;5197;48.152;8.590;2023-12-07T01:08:12;10.57;;;8.20;;
10303;SDS011;5197;48.152;8.590;2023-12-07T01:10:39;10.73;;;7.80;;
10303;SDS011;5197;48.152;8.590;2023-12-07T01:13:06;10.43;;;8.73;;
10303;SDS011;5197;48.152;8.590;2023-12-07T01:15:33;13.73;;;8.97;;
10303;SDS011;5197;48.152;8.590;2023-12-07T01:18:00;11.43;;;7.93;;
10303;SDS011;5197;48.152;8.590;2023-12-07T01:20:27;11.50;;;8.70;;
10303;SDS011;5197;48.152;8.590;2023-12-07T01:22:54;11.63;;;9.37;;
10303;SDS011;5197;48.152;8.590;2023-12-07T01:25:21;13.83;;;8.97;;
10303;SDS011;5197;48.152;8.590;2023-12-07T01:27:49;14.93;;;9.50;;
10303;SDS011;5197;48.152;8.590;2023-12-07T01:30:16;14.57;;;9.67;;
10303;SDS011;5197;48.152;8.590;2023-12-07T01:32:43;12.80;;;9.37;;
10303;SDS011;5197;48.152;8.590;2023-12-07T01:35:10;13.40;;;9.30;;
10303;SDS011;5197;48.152;8.590;2023-12-07T01:37:38;12.50;;;9.70;;
10303;SDS011;5197;48.152;8.590;2023-12-07T01:40:05;10.63;;;8.93;;
10303;SDS011;5197;48.152;8.590;2023-12-07T01:42:36;14.57;;;10.33;;
10303;SDS011;5197;48.152;8.590;2023-12-07T01:45:05;11.27;;;8.53;;
10303;SDS011;5197;48.152;8.590;2023-12-07T01:47:32;11.07;;;7.73;;
10303;SDS011;5197;48.152;8.590;2023-12-07T01:50:01;10.50;;;7.90;;
10303;SDS011;5197;48.152;8.590;2023-12-07T01:52:31;12.20;;;8.77;;
10303;SDS011;5197;48.152;8.590;2023-12-07T01:54:58;11.23;;;8.63;;
10303;SDS011;5197;48.152;8.590;2023-12-07T01:57:26;10.80;;;8.67;;
10303;SDS011;5197;48.152;8.590;2023-12-07T01:59:53;13.27;;;8.50;;
10303;SDS011;5197;48.152;8.590;2023-12-07T02:02:20;9.37;;;7.30;;
10303;SDS011;5197;48.152;8.590;2023-12-07T02:04:47;14.17;;;8.97;;
10303;SDS011;5197;48.152;8.590;2023-12-07T02:07:14;12.83;;;8.90;;
10303;SDS011;5197;48.152;8.590;2023-12-07T02:09:41;11.63;;;8.73;;
10303;SDS011;5197;48.152;8.590;2023-12-07T02:12:09;9.63;;;7.67;;
10303;SDS011;5197;48.152;8.590;2023-12-07T02:14:36;12.27;;;8.97;;
10303;SDS011;5197;48.152;8.590;2023-12-07T02:17:14;9.83;;;8.67;;
10303;SDS011;5197;48.152;8.590;2023-12-07T02:19:47;13.77;;;8.17;;
10303;SDS011;5197;48.152;8.590;2023-12-07T02:22:38;9.03;;;6.57;;
10303;SDS011;5197;48.152;8.590;2023-12-07T02:25:12;7.97;;;7.00;;
10303;SDS011;5197;48.152;8.590;2023-12-07T02:27:41;7.50;;;6.43;;
10303;SDS011;5197;48.152;8.590;2023-12-07T02:30:10;7.80;;;6.60;;
10303;SDS011;5197;48.152;8.590;2023-12-07T02:32:41;8.87;;;6.40;;
10303;SDS011;5197;48.152;8.590;2023-12-07T02:35:11;9.20;;;5.67;;
10303;SDS011;5197;48.152;8.590;2023-12-07T02:37:43;9.83;;;6.77;;
10303;SDS011;5197;48.152;8.590;2023-12-07T02:40:14;11.63;;;6.40;;
10303;SDS011;5197;48.152;8.590;2023-12-07T02:42:52;14.63;;;7.17;;
10303;SDS011;5197;48.152;8.590;2023-12-07T02:45:19;17.87;;;6.67;;
10303;SDS011;5197;48.152;8.590;2023-12-07T02:47:47;9.00;;;6.10;;
10303;SDS011;5197;48.152;8.590;2023-12-07T02:50:14;9.37;;;7.03;;
10303;SDS011;5197;48.152;8.590;2023-12-07T02:52:41;7.10;;;6.30;;
10303;SDS011;5197;48.152;8.590;2023-12-07T02:55:08;10.13;;;7.23;;
10303;SDS011;5197;48.152;8.590;2023-12-07T02:57:36;8.13;;;6.87;;
10303;SDS011;5197;48.152;8.590;2023-12-07T03:00:03;35.37;;;8.57;;
10303;SDS011;5197;48.152;8.590;2023-12-07T03:02:34;25.23;;;9.37;;
10303;SDS011;5197;48.152;8.590;2023-12-07T03:05:03;52.80;;;10.63;;
10303;SDS011;5197;48.152;8.590;2023-12-07T03:07:30;58.47;;;9.03;;
10303;SDS011;5197;48.152;8.590;2023-12-07T03:09:57;62.03;;;8.97;;
10303;SDS011;5197;48.152;8.590;2023-12-07T03:12:24;44.40;;;10.27;;
10303;SDS011;5197;48.152;8.590;2023-12-07T03:14:52;40.07;;;8.13;;
10303;SDS011;5197;48.152;8.590;2023-12-07T03:17:19;36.83;;;7.20;;
10303;SDS011;5197;48.152;8.590;2023-12-07T03:19:45;21.30;;;7.33;;
10303;SDS011;5197;48.152;8.590;2023-12-07T03:22:12;21.23;;;7.57;;
10303;SDS011;5197;48.152;8.590;2023-12-07T03:24:43;10.67;;;6.87;;
10303;SDS011;5197;48.152;8.590;2023-12-07T03:27:12;14.50;;;8.47;;
10303;SDS011;5197;48.152;8.590;2023-12-07T03:29:39;11.63;;;8.43;;
10303;SDS011;5197;48.152;8.590;2023-12-07T03:32:05;13.63;;;9.40;;
10303;SDS011;5197;48.152;8.590;2023-12-07T03:34:32;10.67;;;8.77;;
10303;SDS011;5197;48.152;8.590;2023-12-07T03:36:59;14.93;;;9.20;;
10303;SDS011;5197;48.152;8.590;2023-12-07T03:39:26;13.93;;;9.50;;
10303;SDS011;5197;48.152;8.590;2023-12-07T03:41:53;14.87;;;10.13;;
10303;SDS011;5197;48.152;8.590;2023-12-07T03:44:20;15.37;;;8.97;;
10303;SDS011;5197;48.152;8.590;2023-12-07T03:46:47;15.67;;;9.93;;
10303;SDS011;5197;48.152;8.590;2023-12-07T03:49:14;16.93;;;9.97;;
10303;SDS011;5197;48.152;8.590;2023-12-07T03:51:41;15.93;;;10.03;;
10303;SDS011;5197;48.152;8.590;2023-12-07T03:54:08;14.70;;;9.43;;
10303;SDS011;5197;48.152;8.590;2023-12-07T03:56:35;16.00;;;9.97;;
10303;SDS011;5197;48.152;8.590;2023-12-07T03:59:02;18.27;;;10.47;;
10303;SDS011;5197;48.152;8.590;2023-12-07T04:01:29;20.97;;;10.43;;
10303;SDS011;5197;48.152;8.590;2023-12-07T04:03:56;14.43;;;9.87;;
10303;SDS011;5197;48.152;8.590;2023-12-07T04:06:27;19.73;;;10.40;;
10303;SDS011;5197;48.152;8.590;2023-12-07T04:08:53;18.70;;;11.57;;
10303;SDS011;5197;48.152;8.590;2023-12-07T04:11:20;16.93;;;10.60;;
10303;SDS011;5197;48.152;8.590;2023-12-07T04:13:47;17.90;;;10.93;;
10303;SDS011;5197;48.152;8.590;2023-12-07T04:16:15;17.37;;;10.40;;
10303;SDS011;5197;48.152;8.590;2023-12-07T04:18:43;21.60;;;13.20;;
10303;SDS011;5197;48.152;8.590;2023-12-07T04:21:09;28.83;;;10.40;;
10303;SDS011;5197;48.152;8.590;2023-12-07T04:23:36;22.43;;;10.87;;
10303;SDS011;5197;48.152;8.590;2023-12-07T04:26:03;15.47;;;10.60;;
10303;SDS011;5197;48.152;8.590;2023-12-07T04:28:30;55.23;;;12.37;;
10303;SDS011;5197;48.152;8.590;2023-12-07T04:30:57;124.23;;;15.00;;
10303;SDS011;5197;48.152;8.590;2023-12-07T04:33:24;18.73;;;10.03;;
10303;SDS011;5197;48.152;8.590;2023-12-07T04:35:51;29.73;;;8.77;;
10303;SDS011;5197;48.152;8.590;2023-12-07T04:38:19;77.47;;;9.77;;
10303;SDS011;5197;48.152;8.590;2023-12-07T04:40:45;37.93;;;10.07;;
10303;SDS011;5197;48.152;8.590;2023-12-07T04:43:12;68.87;;;11.27;;
10303;SDS011;5197;48.152;8.590;2023-12-07T04:45:39;59.90;;;10.27;;
10303;SDS011;5197;48.152;8.590;2023-12-07T04:48:06;28.00;;;9.97;;
10303;SDS011;5197;48.152;8.590;2023-12-07T04:50:33;41.57;;;10.33;;
10303;SDS011;5197;48.152;8.590;2023-12-07T04:53:00;26.10;;;8.97;;
10303;SDS011;5197;48.152;8.590;2023-12-07T04:55:26;22.47;;;9.33;;
10303;SDS011;5197;48.152;8.590;2023-12-07T04:57:53;16.07;;;8.17;;
10303;SDS011;5197;48.152;8.590;2023-12-07T05:00:20;60.77;;;8.90;;
10303;SDS011;5197;48.152;8.590;2023-12-07T05:02:48;52.53;;;8.50;;
10303;SDS011;5197;48.152;8.590;2023-12-07T05:05:15;82.27;;;12.30;;
10303;SDS011;5197;48.152;8.590;2023-12-07T05:07:42;38.57;;;9.40;;
10303;SDS011;5197;48.152;8.590;2023-12-07T05:10:09;208.03;;;14.43;;
10303;SDS011;5197;48.152;8.590;2023-12-07T05:12:36;99.23;;;11.53;;
10303;SDS011;5197;48.152;8.590;2023-12-07T05:15:03;55.33;;;9.30;;
10303;SDS011;5197;48.152;8.590;2023-12-07T05:17:32;93.37;;;12.10;;
10303;SDS011;5197;48.152;8.590;2023-12-07T05:19:59;40.53;;;8.10;;
10303;SDS011;5197;48.152;8.590;2023-12-07T05:22:26;87.77;;;12.50;;
10303;SDS011;5197;48.152;8.590;2023-12-07T05:24:54;66.17;;;9.27;;
10303;SDS011;5197;48.152;8.590;2023-12-07T05:27:21;18.07;;;8.27;;
10303;SDS011;5197;48.152;8.590;2023-12-07T05:29:48;42.73;;;9.00;;
10303;SDS011;5197;48.152;8.590;2023-12-07T05:32:15;20.97;;;8.60;;
10303;SDS011;5197;48.152;8.590;2023-12-07T05:34:42;39.97;;;9.87;;
10303;SDS011;5197;48.152;8.590;2023-12-07T05:37:09;54.63;;;10.87;;
10303;SDS011;5197;48.152;8.590;2023-12-07T05:39:36;297.50;;;20.83;;
10303;SDS011;5197;48.152;8.590;2023-12-07T05:42:03;304.50;;;19.73;;
10303;SDS011;5197;48.152;8.590;2023-12-07T05:44:30;201.47;;;14.73;;
10303;SDS011;5197;48.152;8.590;2023-12-07T05:46:57;104.07;;;12.53;;
10303;SDS011;5197;48.152;8.590;2023-12-07T05:49:24;179.20;;;15.27;;
10303;SDS011;5197;48.152;8.590;2023-12-07T05:51:51;109.20;;;13.00;;
10303;SDS011;5197;48.152;8.590;2023-12-07T05:54:19;92.90;;;14.00;;
10303;SDS011;5197;48.152;8.590;2023-12-07T05:56:49;128.90;;;13.53;;
10303;SDS011;5197;48.152;8.590;2023-12-07T05:59:16;114.43;;;12.47;;
10303;SDS011;5197;48.152;8.590;2023-12-07T06:01:43;34.90;;;9.83;;
10303;SDS011;5197;48.152;8.590;2023-12-07T06:04:10;54.73;;;10.73;;
10303;SDS011;5197;48.152;8.590;2023-12-07T06:06:39;74.23;;;10.70;;
10303;SDS011;5197;48.152;8.590;2023-12-07T06:09:06;46.60;;;10.90;;
10303;SDS011;5197;48.152;8.590;2023-12-07T06:11:34;52.33;;;9.73;;
10303;SDS011;5197;48.152;8.590;2023-12-07T06:14:01;47.67;;;9.03;;
10303;SDS011;5197;48.152;8.590;2023-12-07T06:16:28;47.23;;;9.70;;
10303;SDS011;5197;48.152;8.590;2023-12-07T06:18:55;39.77;;;9.63;;
10303;SDS011;5197;48.152;8.590;2023-12-07T06:21:22;62.57;;;10.80;;
10303;SDS011;5197;48.152;8.590;2023-12-07T06:23:51;35.83;;;8.00;;
10303;SDS011;5197;48.152;8.590;2023-12-07T06:26:19;40.70;;;8.90;;
10303;SDS011;5197;48.152;8.590;2023-12-07T06:28:46;12.03;;;7.67;;
10303;SDS011;5197;48.152;8.590;2023-12-07T06:31:13;18.27;;;7.53;;
10303;SDS011;5197;48.152;8.590;2023-12-07T06:33:42;20.33;;;8.87;;
10303;SDS011;5197;48.152;8.590;2023-12-07T06:36:09;13.43;;;9.10;;
10303;SDS011;5197;48.152;8.590;2023-12-07T06:38:36;20.47;;;10.07;;
10303;SDS011;5197;48.152;8.590;2023-12-07T06:41:05;14.63;;;8.87;;
10303;SDS011;5197;48.152;8.590;2023-12-07T06:43:32;14.17;;;8.97;;
10303;SDS011;5197;48.152;8.590;2023-12-07T06:45:59;13.03;;;8.30;;
10303;SDS011;5197;48.152;8.590;2023-12-07T06:48:26;13.27;;;7.93;;
10303;SDS011;5197;48.152;8.590;2023-12-07T06:50:53;12.57;;;8.03;;
10303;SDS011;5197;48.152;8.590;2023-12-07T06:53:20;14.23;;;8.53;;
10303;SDS011;5197;48.152;8.590;2023-12-07T06:55:47;13.27;;;9.17;;
10303;SDS011;5197;48.152;8.590;2023-12-07T06:58:14;13.27;;;8.20;;
10303;SDS011;5197;48.152;8.590;2023-12-07T07:00:40;13.27;;;7.90;;
10303;SDS011;5197;48.152;8.590;2023-12-07T07:03:07;13.23;;;8.30;;
10303;SDS011;5197;48.152;8.590;2023-12-07T07:05:34;12.57;;;7.67;;
10303;SDS011;5197;48.152;8.590;2023-12-07T07:08:01;13.23;;;8.33;;
10303;SDS011;5197;48.152;8.590;2023-12-07T07:10:28;13.73;;;9.03;;
10303;SDS011;5197;48.152;8.590;2023-12-07T07:12:59;40.90;;;11.93;;
10303;SDS011;5197;48.152;8.590;2023-12-07T07:15:32;16.40;;;9.00;;
10303;SDS011;5197;48.152;8.590;2023-12-07T07:18:00;17.77;;;9.23;;
10303;SDS011;5197;48.152;8.590;2023-12-07T07:20:27;16.47;;;8.83;;
10303;SDS011;5197;48.152;8.590;2023-12-07T07:22:54;14.80;;;8.07;;
10303;SDS011;5197;48.152;8.590;2023-12-07T07:25:21;12.50;;;8.70;;
10303;SDS011;5197;48.152;8.590;2023-12-07T07:27:48;14.20;;;8.63;;
10303;SDS011;5197;48.152;8.590;2023-12-07T07:30:15;17.83;;;10.47;;
10303;SDS011;5197;48.152;8.590;2023-12-07T07:32:42;15.90;;;9.33;;
10303;SDS011;5197;48.152;8.590;2023-12-07T07:35:09;18.93;;;9.53;;
10303;SDS011;5197;48.152;8.590;2023-12-07T07:37:38;18.60;;;11.40;;
10303;SDS011;5197;48.152;8.590;2023-12-07T07:40:05;17.93;;;12.00;;
10303;SDS011;5197;48.152;8.590;2023-12-07T07:42:33;17.70;;;12.03;;
10303;SDS011;5197;48.152;8.590;2023-12-07T07:45:00;22.53;;;13.10;;
10303;SDS011;5197;48.152;8.590;2023-12-07T07:47:27;19.50;;;14.17;;
10303;SDS011;5197;48.152;8.590;2023-12-07T07:49:54;22.87;;;14.43;;
10303;SDS011;5197;48.152;8.590;2023-12-07T07:52:21;21.40;;;13.30;;
10303;SDS011;5197;48.152;8.590;2023-12-07T07:54:48;18.47;;;12.20;;
10303;SDS011;5197;48.152;8.590;2023-12-07T07:57:14;21.03;;;12.00;;
10303;SDS011;5197;48.152;8.590;2023-12-07T07:59:41;16.47;;;10.67;;
10303;SDS011;5197;48.152;8.590;2023-12-07T08:02:08;14.40;;;10.20;;
10303;SDS011;5197;48.152;8.590;2023-12-07T08:04:35;13.37;;;9.87;;
10303;SDS011;5197;48.152;8.590;2023-12-07T08:07:02;16.50;;;10.57;;
10303;SDS011;5197;48.152;8.590;2023-12-07T08:09:29;16.33;;;10.67;;
10303;SDS011;5197;48.152;8.590;2023-12-07T08:11:56;14.67;;;10.40;;
10303;SDS011;5197;48.152;8.590;2023-12-07T08:14:23;17.80;;;10.67;;
10303;SDS011;5197;48.152;8.590;2023-12-07T08:16:50;13.90;;;9.43;;
10303;SDS011;5197;48.152;8.590;2023-12-07T08:19:16;14.90;;;9.67;;
10303;SDS011;5197;48.152;8.590;2023-12-07T08:21:43;10.97;;;8.67;;
10303;SDS011;5197;48.152;8.590;2023-12-07T08:24:10;14.07;;;9.30;;
10303;SDS011;5197;48.152;8.590;2023-12-07T08:26:39;14.93;;;10.33;;
10303;SDS011;5197;48.152;8.590;2023-12-07T08:29:06;19.83;;;13.03;;
10303;SDS011;5197;48.152;8.590;2023-12-07T08:31:35;17.87;;;12.87;;
10303;SDS011;5197;48.152;8.590;2023-12-07T08:34:02;19.17;;;12.30;;
10303;SDS011;5197;48.152;8.590;2023-12-07T08:36:29;17.77;;;13.27;;
10303;SDS011;5197;48.152;8.590;2023-12-07T08:38:56;22.60;;;13.27;;
10303;SDS011;5197;48.152;8.590;2023-12-07T08:41:23;18.73;;;12.70;;
10303;SDS011;5197;48.152;8.590;2023-12-07T08:43:50;15.30;;;10.37;;
10303;SDS011;5197;48.152;8.590;2023-12-07T08:46:16;11.40;;;8.40;;
10303;SDS011;5197;48.152;8.590;2023-12-07T08:48:43;12.33;;;9.27;;
10303;SDS011;5197;48.152;8.590;2023-12-07T08:51:10;11.73;;;8.90;;
10303;SDS011;5197;48.152;8.590;2023-12-07T08:53:38;14.97;;;8.60;;
10303;SDS011;5197;48.152;8.590;2023-12-07T08:56:05;12.07;;;8.77;;
10303;SDS011;5197;48.152;8.590;2023-12-07T08:58:32;13.13;;;9.50;;
10303;SDS011;5197;48.152;8.590;2023-12-07T09:00:59;12.27;;;8.87;;
10303;SDS011;5197;48.152;8.590;2023-12-07T09:03:26;9.50;;;7.63;;
10303;SDS011;5197;48.152;8.590;2023-12-07T09:06:01;12.20;;;8.83;;
10303;SDS011;5197;48.152;8.590;2023-12-07T09:08:29;9.30;;;7.63;;
10303;SDS011;5197;48.152;8.590;2023-12-07T09:10:55;10.63;;;7.27;;
10303;SDS011;5197;48.152;8.590;2023-12-07T09:13:22;9.77;;;6.70;;
10303;SDS011;5197;48.152;8.590;2023-12-07T09:15:50;13.17;;;8.20;;
10303;SDS011;5197;48.152;8.590;2023-12-07T09:18:16;10.30;;;7.60;;
10303;SDS011;5197;48.152;8.590;2023-12-07T09:20:43;8.63;;;6.67;;
10303;SDS011;5197;48.152;8.590;2023-12-07T09:23:12;9.87;;;7.30;;
10303;SDS011;5197;48.152;8.590;2023-12-07T09:25:41;8.80;;;6.80;;
10303;SDS011;5197;48.152;8.590;2023-12-07T09:28:09;10.67;;;7.67;;
10303;SDS011;5197;48.152;8.590;2023-12-07T09:30:36;10.40;;;7.80;;
10303;SDS011;5197;48.152;8.590;2023-12-07T09:33:03;9.33;;;7.23;;
10303;SDS011;5197;48.152;8.590;2023-12-07T09:35:30;7.53;;;6.33;;
10303;SDS011;5197;48.152;8.590;2023-12-07T09:37:57;9.27;;;7.20;;
10303;SDS011;5197;48.152;8.590;2023-12-07T09:40:24;12.57;;;9.40;;
10303;SDS011;5197;48.152;8.590;2023-12-07T09:42:52;12.70;;;8.73;;
10303;SDS011;5197;48.152;8.590;2023-12-07T09:45:19;10.67;;;8.03;;
10303;SDS011;5197;48.152;8.590;2023-12-07T09:47:50;10.47;;;7.93;;
10303;SDS011;5197;48.152;8.590;2023-12-07T09:50:19;9.70;;;7.33;;
10303;SDS011;5197;48.152;8.590;2023-12-07T09:52:50;8.77;;;7.33;;
10303;SDS011;5197;48.152;8.590;2023-12-07T09:55:32;9.90;;;7.87;;
10303;SDS011;5197;48.152;8.590;2023-12-07T09:58:00;10.10;;;8.20;;
10303;SDS011;5197;48.152;8.590;2023-12-07T10:00:29;11.13;;;7.83;;
10303;SDS011;5197;48.152;8.590;2023-12-07T10:02:56;11.47;;;8.17;;
10303;SDS011;5197;48.152;8.590;2023-12-07T10:05:23;11.40;;;8.10;;
10303;SDS011;5197;48.152;8.590;2023-12-07T10:07:50;10.37;;;7.70;;
10303;SDS011;5197;48.152;8.590;2023-12-07T10:10:18;12.70;;;9.00;;
10303;SDS011;5197;48.152;8.590;2023-12-07T10:12:46;11.47;;;8.10;;
10303;SDS011;5197;48.152;8.590;2023-12-07T10:15:15;14.40;;;9.43;;
10303;SDS011;5197;48.152;8.590;2023-12-07T10:17:46;13.50;;;9.07;;
10303;SDS011;5197;48.152;8.590;2023-12-07T10:20:19;12.57;;;8.77;;
10303;SDS011;5197;48.152;8.590;2023-12-07T10:23:01;12.67;;;9.00;;
10303;SDS011;5197;48.152;8.590;2023-12-07T10:25:32;12.33;;;9.27;;
10303;SDS011;5197;48.152;8.590;2023-12-07T10:28:02;12.23;;;9.10;;
10303;SDS011;5197;48.152;8.590;2023-12-07T10:30:33;16.80;;;10.63;;
10303;SDS011;5197;48.152;8.590;2023-12-07T10:33:04;13.03;;;10.33;;
10303;SDS011;5197;48.152;8.590;2023-12-07T10:35:38;13.63;;;10.40;;
10303;SDS011;5197;48.152;8.590;2023-12-07T10:38:06;13.43;;;9.87;;
10303;SDS011;5197;48.152;8.590;2023-12-07T10:40:34;14.47;;;10.33;;
10303;SDS011;5197;48.152;8.590;2023-12-07T10:43:04;16.13;;;10.10;;
10303;SDS011;5197;48.152;8.590;2023-12-07T10:45:33;11.43;;;8.97;;
10303;SDS011;5197;48.152;8.590;2023-12-07T10:48:02;11.53;;;9.33;;
10303;SDS011;5197;48.152;8.590;2023-12-07T10:50:32;11.80;;;9.77;;
10303;SDS011;5197;48.152;8.590;2023-12-07T10:53:06;12.90;;;10.00;;
10303;SDS011;5197;48.152;8.590;2023-12-07T10:55:45;14.50;;;10.10;;
10303;SDS011;5197;48.152;8.590;2023-12-07T10:58:16;15.43;;;11.17;;
10303;SDS011;5197;48.152;8.590;2023-12-07T11:00:44;12.70;;;10.23;;
10303;SDS011;5197;48.152;8.590;2023-12-07T11:03:15;13.47;;;9.53;;
10303;SDS011;5197;48.152;8.590;2023-12-07T11:05:48;11.67;;;9.37;;
10303;SDS011;5197;48.152;8.590;2023-12-07T11:13:34;16.43;;;10.13;;
10303;SDS011;5197;48.152;8.590;2023-12-07T11:16:03;12.07;;;9.27;;
10303;SDS011;5197;48.152;8.590;2023-12-07T11:18:31;14.20;;;10.57;;
10303;SDS011;5197;48.152;8.590;2023-12-07T11:20:58;19.40;;;11.27;;
10303;SDS011;5197;48.152;8.590;2023-12-07T11:23:29;19.90;;;11.50;;
10303;SDS011;5197;48.152;8.590;2023-12-07T11:25:57;14.60;;;9.87;;
10303;SDS011;5197;48.152;8.590;2023-12-07T11:28:34;12.83;;;9.93;;
10303;SDS011;5197;48.152;8.590;2023-12-07T11:31:02;20.83;;;11.60;;
10303;SDS011;5197;48.152;8.590;2023-12-07T11:33:29;14.37;;;10.67;;
10303;SDS011;5197;48.152;8.590;2023-12-07T11:36:04;11.43;;;9.40;;
10303;SDS011;5197;48.152;8.590;2023-12-07T11:38:33;11.60;;;9.13;;
10303;SDS011;5197;48.152;8.590;2023-12-07T11:41:00;10.13;;;8.93;;
10303;SDS011;5197;48.152;8.590;2023-12-07T11:46:02;12.10;;;8.43;;
10303;SDS011;5197;48.152;8.590;2023-12-07T11:48:29;9.27;;;8.03;;
10303;SDS011;5197;48.152;8.590;2023-12-07T11:51:05;10.47;;;8.23;;
10303;SDS011;5197;48.152;8.590;2023-12-07T11:53:38;9.53;;;7.90;;
10303;SDS011;5197;48.152;8.590;2023-12-07T11:56:06;12.07;;;8.10;;
10303;SDS011;5197;48.152;8.590;2023-12-07T11:58:35;10.43;;;7.90;;
10303;SDS011;5197;48.152;8.590;2023-12-07T12:01:06;11.97;;;9.37;;
10303;SDS011;5197;48.152;8.590;2023-12-07T12:03:35;12.13;;;8.77;;
10303;SDS011;5197;48.152;8.590;2023-12-07T12:06:03;10.67;;;8.97;;
10303;SDS011;5197;48.152;8.590;2023-12-07T12:08:32;12.37;;;9.10;;
10303;SDS011;5197;48.152;8.590;2023-12-07T12:10:59;13.07;;;9.03;;
10303;SDS011;5197;48.152;8.590;2023-12-07T12:13:27;11.70;;;9.53;;
10303;SDS011;5197;48.152;8.590;2023-12-07T12:16:00;11.70;;;8.73;;
10303;SDS011;5197;48.152;8.590;2023-12-07T12:18:32;9.80;;;8.23;;
10303;SDS011;5197;48.152;8.590;2023-12-07T12:21:00;9.93;;;7.83;;
10303;SDS011;5197;48.152;8.590;2023-12-07T12:23:27;10.47;;;6.97;;
10303;SDS011;5197;48.152;8.590;2023-12-07T12:25:55;10.37;;;7.90;;
10303;SDS011;5197;48.152;8.590;2023-12-07T12:28:23;10.20;;;8.23;;
10303;SDS011;5197;48.152;8.590;2023-12-07T12:30:50;8.33;;;7.00;;
10303;SDS011;5197;48.152;8.590;2023-12-07T12:33:19;7.33;;;6.57;;
10303;SDS011;5197;48.152;8.590;2023-12-07T12:35:46;9.10;;;7.27;;
10303;SDS011;5197;48.152;8.590;2023-12-07T12:38:13;9.73;;;7.30;;
10303;SDS011;5197;48.152;8.590;2023-12-07T12:40:53;7.83;;;6.87;;
10303;SDS011;5197;48.152;8.590;2023-12-07T12:43:20;13.20;;;8.67;;
10303;SDS011;5197;48.152;8.590;2023-12-07T12:45:49;11.23;;;7.83;;
10303;SDS011;5197;48.152;8.590;2023-12-07T12:48:31;9.30;;;7.13;;
10303;SDS011;5197;48.152;8.590;2023-12-07T12:51:06;7.27;;;6.53;;
10303;SDS011;5197;48.152;8.590;2023-12-07T12:53:35;7.83;;;6.77;;
10303;SDS011;5197;48.152;8.590;2023-12-07T12:56:02;10.23;;;6.57;;
10303;SDS011;5197;48.152;8.590;2023-12-07T12:58:30;8.93;;;7.27;;
10303;SDS011;5197;48.152;8.590;2023-12-07T13:00:57;6.27;;;5.60;;
10303;SDS011;5197;48.152;8.590;2023-12-07T13:03:24;7.17;;;5.97;;
10303;SDS011;5197;48.152;8.590;2023-12-07T13:05:51;7.67;;;5.97;;
10303;SDS011;5197;48.152;8.590;2023-12-07T13:08:19;8.20;;;6.77;;
10303;SDS011;5197;48.152;8.590;2023-12-07T13:10:47;6.03;;;5.17;;
10303;SDS011;5197;48.152;8.590;2023-12-07T13:13:14;5.67;;;4.70;;
10303;SDS011;5197;48.152;8.590;2023-12-07T13:15:41;5.27;;;4.63;;
10303;SDS011;5197;48.152;8.590;2023-12-07T13:18:08;4.73;;;4.30;;
10303;SDS011;5197;48.152;8.590;2023-12-07T13:20:35;4.63;;;4.20;;
10303;SDS011;5197;48.152;8.590;2023-12-07T13:23:05;4.77;;;4.30;;
10303;SDS011;5197;48.152;8.590;2023-12-07T13:25:32;4.67;;;4.17;;
10303;SDS011;5197;48.152;8.590;2023-12-07T13:27:59;5.30;;;3.90;;
10303;SDS011;5197;48.152;8.590;2023-12-07T13:30:26;4.67;;;4.00;;
10303;SDS011;5197;48.152;8.590;2023-12-07T13:32:55;4.53;;;4.13;;
10303;SDS011;5197;48.152;8.590;2023-12-07T13:35:22;4.97;;;3.60;;
10303;SDS011;5197;48.152;8.590;2023-12-07T13:37:49;5.63;;;3.80;;
10303;SDS011;5197;48.152;8.590;2023-12-07T13:40:16;4.40;;;3.93;;
10303;SDS011;5197;48.152;8.590;2023-12-07T13:42:43;4.60;;;4.20;;
10303;SDS011;5197;48.152;8.590;2023-12-07T13:45:10;5.47;;;4.97;;
10303;SDS011;5197;48.152;8.590;2023-12-07T13:47:37;7.37;;;5.67;;
10303;SDS011;5197;48.152;8.590;2023-12-07T13:50:04;13.80;;;7.60;;
10303;SDS011;5197;48.152;8.590;2023-12-07T13:52:33;6.07;;;5.47;;
10303;SDS011;5197;48.152;8.590;2023-12-07T13:55:00;5.10;;;4.60;;
10303;SDS011;5197;48.152;8.590;2023-12-07T13:57:28;6.17;;;5.07;;
10303;SDS011;5197;48.152;8.590;2023-12-07T13:59:56;5.27;;;4.77;;
10303;SDS011;5197;48.152;8.590;2023-12-07T14:02:24;5.73;;;5.20;;
10303;SDS011;5197;48.152;8.590;2023-12-07T14:04:52;7.23;;;5.07;;
10303;SDS011;5197;48.152;8.590;2023-12-07T14:07:19;6.20;;;5.13;;
10303;SDS011;5197;48.152;8.590;2023-12-07T14:09:51;5.00;;;4.50;;
10303;SDS011;5197;48.152;8.590;2023-12-07T14:12:24;6.50;;;5.80;;
10303;SDS011;5197;48.152;8.590;2023-12-07T14:14:55;11.67;;;8.60;;
10303;SDS011;5197;48.152;8.590;2023-12-07T14:17:22;9.23;;;6.67;;
10303;SDS011;5197;48.152;8.590;2023-12-07T14:20:06;9.03;;;6.87;;
10303;SDS011;5197;48.152;8.590;2023-12-07T14:22:55;14.93;;;9.57;;
10303;SDS011;5197;48.152;8.590;2023-12-07T14:25:23;13.33;;;9.23;;
10303;SDS011;5197;48.152;8.590;2023-12-07T14:27:50;12.67;;;9.57;;
10303;SDS011;5197;48.152;8.590;2023-12-07T14:30:17;14.20;;;10.77;;
10303;SDS011;5197;48.152;8.590;2023-12-07T14:32:44;13.50;;;10.27;;
10303;SDS011;5197;48.152;8.590;2023-12-07T14:35:18;11.63;;;7.80;;
10303;SDS011;5197;48.152;8.590;2023-12-07T14:37:46;10.97;;;7.93;;
10303;SDS011;5197;48.152;8.590;2023-12-07T14:40:17;14.13;;;8.37;;
10303;SDS011;5197;48.152;8.590;2023-12-07T14:42:44;13.40;;;9.30;;
10303;SDS011;5197;48.152;8.590;2023-12-07T14:45:12;12.20;;;8.50;;
10303;SDS011;5197;48.152;8.590;2023-12-07T14:47:41;13.93;;;8.70;;
10303;SDS011;5197;48.152;8.590;2023-12-07T14:50:08;11.07;;;8.50;;
10303;SDS011;5197;48.152;8.590;2023-12-07T14:52:35;11.80;;;7.63;;
10303;SDS011;5197;48.152;8.590;2023-12-07T14:55:02;9.50;;;7.97;;
10303;SDS011;5197;48.152;8.590;2023-12-07T14:57:30;10.63;;;7.67;;
10303;SDS011;5197;48.152;8.590;2023-12-07T14:59:57;11.37;;;8.77;;